Portada
METAR-TAF:

METAR-TAF

Aeroports :

Dimapur, Índia

latitud: 25-53-02N, longitud: 093-46-16E, altitud: 148 m

Observació

L'informe es va fer fa 15 minuts, a les 03:00 UTC
Vent calma
Temperatura 19°C
Humitat 78%
Pressió 1016 hPa
Visibilitat: 2000 m

METAR: VEMR 090300Z 00000KT 2000 NSC 19/15 Q1016 BECMG 3000 BR

Hora: 08:45 (03:15 UTC)

Pronòstic

L'informe es va fer fa 1 hora i 15 minuts, a les 02:00 UTC
Pronòstic vàlid del 09 a les 03 UTC al 09 a les 12 UTC
Vent 5 kt del Est
Visibilitat: 2500 m
Escasses núvols a una alçada de 1800 ft
boirina
Evolucionant progressivament
l' 09 a les 06 UTC al 09 a les 08 UTC
Vent 5 kt del Sud/Sud-Est
Visibilitat: 4000 m
calitja

TAF: VEMR 090200Z 0903/0912 09005KT 2500 BR FEW018 BECMG 0906/0908 15005KT 4000 HZ

Observacions i pronòstics meteorològics de més de 4000 aeroports (METAR i TAF).

Les estacions disponibles són els punts grocs i vermells al mapa.

Posi el ratolí al punt desitjat per veure el nom de l'estació.

Feu clic per veure les observacions i els pronòstics meteorològics.

Per canviar el mapa: feu clic els botons verds amb una creu de color negre per apropar; al botó verd amb un guió per allunyar la imatge; o en les fletxes verdes per a mapes adjacents.


METAR-TAF: